Erenhot, China
Current Conditions -  °F | °C
As of 6:00 AM on Saturday 01 Nov 2014 (Local Time) from ZBHH Reporting Station
Few Clouds Few Clouds  
Wind Chill: 36°   Ceiling: Unl
Heat Index: 36°   Visibility: 6mi
Dew Point: 19°   Wind: 2mph
Humidity: 52%   Direction: 330°NNW
Pressure: 30.21"   Gusts: NA
Location:  43.66°N, 111.96°E
Report Text: ZBHH 312200Z 33001MPS 9999 FEW040 02/M07 Q1023 NOSIG
Loading
Personal Weather Stations






























Interactive Weather Map
Tropical Storm Tracking
New forecast layout! Learn more

10-Day Weather Forecast

Advertisements
Track Severe Weather on mobile